createdAt,value
2023-02-20T00:01:32.969Z,32.60
2023-02-20T00:04:00.117Z,31.73
2023-02-20T00:06:26.960Z,30.48
2023-02-20T00:08:53.855Z,30.13
2023-02-20T00:11:20.785Z,29.35
2023-02-20T00:13:49.205Z,30.48
2023-02-20T00:16:16.570Z,30.40
2023-02-20T00:18:44.470Z,29.95
2023-02-20T00:21:11.435Z,29.58
2023-02-20T00:23:38.367Z,29.80
2023-02-20T00:26:10.101Z,29.17
2023-02-20T00:28:39.812Z,29.27
2023-02-20T00:31:08.299Z,29.15
2023-02-20T00:33:36.842Z,30.08
2023-02-20T00:36:04.687Z,30.23
2023-02-20T00:38:31.738Z,28.38
2023-02-20T00:43:28.902Z,29.52
2023-02-20T00:45:55.866Z,29.48
2023-02-20T00:48:22.841Z,30.70
2023-02-20T00:51:09.609Z,29.35
2023-02-20T00:53:36.608Z,29.75
2023-02-20T00:56:03.609Z,29.33
2023-02-20T00:58:30.544Z,30.00
2023-02-20T01:00:57.407Z,29.30
2023-02-20T01:03:24.284Z,28.75
2023-02-20T01:05:51.119Z,31.02
2023-02-20T01:08:19.918Z,29.25
2023-02-20T01:10:46.760Z,30.42
2023-02-20T01:13:13.894Z,30.13
2023-02-20T01:15:40.817Z,29.90
2023-02-20T01:18:07.964Z,30.65
2023-02-20T01:20:34.829Z,31.48
2023-02-20T01:23:04.306Z,31.88
2023-02-20T01:25:31.280Z,31.25
2023-02-20T01:27:58.110Z,30.98
2023-02-20T01:30:25.046Z,31.17
2023-02-20T01:32:51.943Z,30.88
2023-02-20T01:35:19.149Z,31.08
2023-02-20T01:37:46.086Z,28.65
2023-02-20T01:40:21.889Z,30.35
2023-02-20T01:42:49.135Z,28.65
2023-02-20T01:45:23.168Z,27.50
2023-02-20T01:47:52.554Z,29.10
2023-02-20T01:50:23.932Z,28.92
2023-02-20T01:52:54.342Z,28.58
2023-02-20T01:55:43.703Z,28.98
2023-02-20T01:58:28.072Z,29.38
2023-02-20T02:00:57.204Z,29.65
2023-02-20T02:03:29.279Z,28.77
2023-02-20T02:06:00.699Z,28.52
2023-02-20T02:08:29.746Z,27.58
2023-02-20T02:11:02.233Z,27.88
2023-02-20T02:13:30.570Z,27.88
2023-02-20T02:19:44.553Z,29.23
2023-02-20T02:22:33.242Z,27.65
2023-02-20T02:25:12.050Z,28.30
2023-02-20T02:28:16.374Z,30.43
2023-02-20T02:30:58.267Z,27.40
2023-02-20T02:33:35.145Z,27.92
2023-02-20T02:36:20.099Z,30.17
2023-02-20T02:38:51.865Z,29.52
2023-02-20T02:41:25.232Z,27.92
2023-02-20T02:44:07.239Z,27.88
2023-02-20T02:46:40.334Z,29.15
2023-02-20T02:49:19.898Z,28.25
2023-02-20T02:51:48.029Z,28.35
2023-02-20T02:54:22.225Z,27.92
2023-02-20T02:56:49.337Z,26.70
2023-02-20T02:59:30.293Z,26.55
2023-02-20T03:02:03.485Z,26.20
2023-02-20T03:04:33.106Z,27.45
2023-02-20T03:07:05.109Z,27.73
2023-02-20T03:10:01.850Z,27.23
2023-02-20T03:12:30.757Z,27.85
2023-02-20T03:15:42.626Z,27.42
2023-02-20T03:18:39.689Z,27.67
2023-02-20T03:21:17.049Z,27.42
2023-02-20T03:23:49.833Z,27.63
2023-02-20T03:26:27.434Z,26.08
2023-02-20T03:28:59.001Z,26.48
2023-02-20T03:31:35.462Z,25.65
2023-02-20T03:34:28.837Z,27.23
2023-02-20T03:37:26.757Z,28.17
2023-02-20T03:40:18.387Z,28.13
2023-02-20T03:43:09.086Z,28.23
2023-02-20T03:45:41.666Z,27.02
2023-02-20T03:48:15.476Z,27.40
2023-02-20T03:51:01.468Z,28.40
2023-02-20T03:53:34.379Z,27.50
2023-02-20T03:56:06.327Z,27.50
2023-02-20T03:58:36.541Z,28.85
2023-02-20T04:01:05.681Z,28.83
2023-02-20T04:03:39.151Z,26.25
2023-02-20T04:06:09.931Z,25.83
2023-02-20T04:08:49.482Z,25.98
2023-02-20T04:11:28.946Z,27.05
2023-02-20T04:13:58.163Z,27.40
2023-02-20T04:16:26.138Z,27.00
2023-02-20T04:18:53.911Z,26.27
2023-02-20T04:21:35.425Z,28.23
2023-02-20T04:24:18.351Z,27.08
2023-02-20T04:26:46.281Z,25.00
2023-02-20T04:29:14.007Z,26.92
2023-02-20T04:31:42.234Z,26.80
2023-02-20T04:34:09.275Z,25.77
2023-02-20T04:36:36.728Z,26.48
2023-02-20T04:39:05.355Z,27.17
2023-02-20T04:41:33.564Z,26.27
2023-02-20T04:44:19.569Z,28.92
2023-02-20T04:46:49.055Z,30.38
2023-02-20T04:49:16.433Z,29.67
2023-02-20T04:51:48.818Z,32.88
2023-02-20T04:54:15.917Z,32.22
2023-02-20T04:56:42.853Z,34.05
2023-02-20T04:59:10.768Z,33.85
2023-02-20T05:01:37.705Z,33.05
2023-02-20T05:04:04.948Z,33.75
2023-02-20T05:06:31.805Z,32.60
2023-02-20T05:08:59.099Z,33.30
2023-02-20T05:11:25.924Z,34.35
2023-02-20T05:13:52.819Z,33.22
2023-02-20T05:16:19.609Z,30.70
2023-02-20T05:18:46.664Z,28.52
2023-02-20T05:21:33.283Z,28.17
2023-02-20T05:24:00.146Z,28.48
2023-02-20T05:26:27.123Z,26.60
2023-02-20T05:28:54.057Z,28.75
2023-02-20T05:31:20.922Z,27.58
2023-02-20T05:33:47.990Z,29.15
2023-02-20T05:36:15.951Z,31.35
2023-02-20T05:38:47.794Z,32.10
2023-02-20T05:41:21.372Z,31.23
2023-02-20T05:43:48.577Z,31.08
2023-02-20T05:46:16.445Z,32.95
2023-02-20T05:48:43.761Z,38.80
2023-02-20T05:51:23.842Z,34.78
2023-02-20T05:53:50.801Z,33.20
2023-02-20T05:56:18.145Z,32.00
2023-02-20T05:58:45.902Z,28.83
2023-02-20T06:01:24.712Z,29.48
2023-02-20T06:03:52.179Z,28.57
2023-02-20T06:06:19.949Z,27.27
2023-02-20T06:08:48.425Z,26.75
2023-02-20T06:11:16.068Z,27.40
2023-02-20T06:13:44.907Z,27.25
2023-02-20T06:16:13.082Z,28.10
2023-02-20T06:18:41.828Z,27.02
2023-02-20T06:21:11.927Z,26.45
2023-02-20T06:23:39.620Z,28.58
2023-02-20T06:26:07.395Z,30.40
2023-02-20T06:28:34.928Z,26.70
2023-02-20T06:31:02.398Z,27.52
2023-02-20T06:33:30.537Z,26.10
2023-02-20T06:35:57.672Z,25.48
2023-02-20T06:38:25.370Z,26.08
2023-02-20T06:40:52.446Z,26.83
2023-02-20T06:43:19.687Z,26.00
2023-02-20T06:45:47.004Z,24.48
2023-02-20T06:48:17.473Z,25.95
2023-02-20T06:50:44.518Z,25.15
2023-02-20T06:53:11.351Z,26.33
2023-02-20T06:55:38.214Z,26.67
2023-02-20T06:58:05.094Z,24.58
2023-02-20T07:00:32.064Z,24.85
2023-02-20T07:02:58.858Z,26.25
2023-02-20T07:05:25.702Z,28.50
2023-02-20T07:07:52.631Z,28.63
2023-02-20T07:10:19.483Z,29.40
2023-02-20T07:12:46.336Z,29.35
2023-02-20T07:15:13.645Z,31.25
2023-02-20T07:17:40.460Z,30.38
2023-02-20T07:20:08.123Z,30.98
2023-02-20T07:22:35.115Z,33.30
2023-02-20T07:25:02.096Z,33.80
2023-02-20T07:27:28.884Z,32.42
2023-02-20T07:29:55.972Z,32.95
2023-02-20T07:32:23.709Z,33.95
2023-02-20T07:35:03.096Z,32.95
2023-02-20T07:37:31.779Z,33.22
2023-02-20T07:39:58.587Z,32.33
2023-02-20T07:42:25.562Z,32.75
2023-02-20T07:45:01.508Z,31.98
2023-02-20T07:47:28.373Z,35.08
2023-02-20T07:49:55.203Z,35.00
2023-02-20T07:52:22.072Z,33.13
2023-02-20T07:54:48.876Z,32.72
2023-02-20T07:57:15.899Z,31.35
2023-02-20T07:59:42.703Z,31.33
2023-02-20T08:02:09.607Z,28.52
2023-02-20T08:04:36.427Z,28.98
2023-02-20T08:07:03.326Z,29.83
2023-02-20T08:09:30.108Z,30.67
2023-02-20T08:11:56.964Z,30.35
2023-02-20T08:14:23.897Z,27.73
2023-02-20T08:16:50.904Z,28.08
2023-02-20T08:19:17.675Z,29.55
2023-02-20T08:21:44.591Z,29.25
2023-02-20T08:24:11.394Z,29.35
2023-02-20T08:26:46.197Z,29.33
2023-02-20T08:29:14.190Z,27.48
2023-02-20T08:31:41.542Z,30.38
2023-02-20T08:34:09.200Z,29.80
2023-02-20T08:36:36.176Z,27.88
2023-02-20T08:39:03.565Z,28.48
2023-02-20T08:41:32.102Z,27.75
2023-02-20T08:43:59.144Z,27.15
2023-02-20T08:46:26.073Z,26.35
2023-02-20T08:48:53.159Z,26.90
2023-02-20T08:51:21.477Z,28.05
2023-02-20T08:53:48.420Z,26.13
2023-02-20T08:56:19.322Z,27.15
2023-02-20T08:58:46.265Z,28.95
2023-02-20T09:01:13.185Z,29.10
2023-02-20T09:03:41.854Z,25.92
2023-02-20T09:06:09.044Z,28.08
2023-02-20T09:08:36.187Z,25.63
2023-02-20T09:11:03.358Z,25.08
2023-02-20T09:13:30.309Z,25.27
2023-02-20T09:15:57.130Z,24.95
2023-02-20T09:18:24.062Z,25.75
2023-02-20T09:20:51.052Z,25.85
2023-02-20T09:23:18.239Z,25.83
2023-02-20T09:25:45.092Z,26.23
2023-02-20T09:28:11.997Z,25.45
2023-02-20T09:30:38.885Z,27.83
2023-02-20T09:33:05.838Z,27.35
2023-02-20T09:35:32.686Z,27.50
2023-02-20T09:37:59.769Z,28.48
2023-02-20T09:40:30.272Z,28.80
2023-02-20T09:43:15.966Z,29.23
2023-02-20T09:45:49.422Z,28.67
2023-02-20T09:48:36.499Z,28.20
2023-02-20T09:51:10.228Z,27.15
2023-02-20T09:54:05.841Z,26.35
2023-02-20T09:56:41.085Z,26.33
2023-02-20T09:59:18.103Z,28.10
2023-02-20T10:02:25.043Z,28.08
2023-02-20T10:05:01.202Z,27.85
2023-02-20T10:07:34.277Z,28.55
2023-02-20T10:10:22.340Z,28.48
2023-02-20T10:12:57.276Z,28.90
2023-02-20T10:15:31.546Z,28.88
2023-02-20T10:18:36.494Z,28.98
2023-02-20T10:21:25.077Z,28.90
2023-02-20T10:24:07.594Z,27.52
2023-02-20T10:26:39.597Z,27.67
2023-02-20T10:29:20.914Z,27.60
2023-02-20T10:31:53.560Z,27.25
2023-02-20T10:35:04.809Z,28.65
2023-02-20T10:37:47.392Z,28.20
2023-02-20T10:40:21.089Z,29.20
2023-02-20T10:43:01.815Z,29.38
2023-02-20T10:45:47.000Z,28.65
2023-02-20T10:48:15.566Z,28.95
2023-02-20T10:50:45.422Z,28.30
2023-02-20T10:55:56.170Z,28.08
2023-02-20T10:58:29.174Z,29.73
2023-02-20T11:01:09.300Z,27.35
2023-02-20T11:04:04.646Z,26.38
2023-02-20T11:06:38.188Z,27.65
2023-02-20T11:09:05.764Z,27.60
2023-02-20T11:11:36.392Z,28.35
2023-02-20T11:14:12.007Z,27.23
2023-02-20T11:16:46.042Z,27.50
2023-02-20T11:19:30.478Z,26.20
2023-02-20T11:21:57.710Z,26.33
2023-02-20T11:24:29.235Z,25.33
2023-02-20T11:27:15.275Z,26.55
2023-02-20T11:29:56.234Z,26.17
2023-02-20T11:32:30.969Z,25.40
2023-02-20T11:35:19.198Z,23.35
2023-02-20T11:38:14.922Z,23.60
2023-02-20T11:40:43.280Z,22.63
2023-02-20T11:43:14.104Z,21.88
2023-02-20T11:45:41.200Z,21.35
2023-02-20T11:48:15.197Z,21.55
2023-02-20T11:50:49.282Z,21.20
2023-02-20T11:53:23.801Z,20.48
2023-02-20T11:56:11.295Z,20.38
2023-02-20T11:58:39.519Z,18.83
2023-02-20T12:01:07.263Z,19.10
2023-02-20T12:03:36.315Z,19.92
2023-02-20T12:06:39.065Z,19.25
2023-02-20T12:09:11.875Z,20.52
2023-02-20T12:11:39.617Z,20.65
2023-02-20T12:14:14.765Z,19.95
2023-02-20T12:16:50.450Z,20.73
2023-02-20T12:19:44.746Z,19.73
2023-02-20T12:22:20.553Z,20.23
2023-02-20T12:24:58.631Z,18.02
2023-02-20T12:27:59.487Z,20.35
2023-02-20T12:30:32.467Z,18.52
2023-02-20T12:33:33.141Z,17.80
2023-02-20T12:36:24.911Z,17.83
2023-02-20T12:39:14.482Z,17.70
2023-02-20T12:42:06.239Z,18.90
2023-02-20T12:44:57.196Z,18.33
2023-02-20T12:47:52.356Z,18.95
2023-02-20T12:50:28.147Z,17.75
2023-02-20T12:53:06.520Z,17.67
2023-02-20T12:55:57.941Z,16.88
2023-02-20T12:58:56.630Z,16.20
2023-02-20T13:01:38.440Z,16.42
2023-02-20T13:04:30.547Z,15.75
2023-02-20T13:07:03.882Z,16.83
2023-02-20T13:09:42.512Z,15.55
2023-02-20T13:12:16.051Z,15.85
2023-02-20T13:14:55.863Z,15.75
2023-02-20T13:17:37.205Z,14.25
2023-02-20T13:20:11.990Z,13.70
2023-02-20T13:22:38.848Z,13.77
2023-02-20T13:25:33.657Z,14.40
2023-02-20T13:28:20.521Z,14.75
2023-02-20T13:31:22.213Z,15.00
2023-02-20T13:33:50.797Z,14.05
2023-02-20T13:36:39.896Z,11.93
2023-02-20T13:39:19.207Z,12.70
2023-02-20T13:41:55.432Z,12.35
2023-02-20T13:44:31.196Z,11.68
2023-02-20T13:47:26.954Z,12.45
2023-02-20T13:49:58.855Z,9.75
2023-02-20T13:52:40.067Z,8.23
2023-02-20T13:55:10.124Z,8.05
2023-02-20T13:57:58.990Z,6.95
2023-02-20T14:00:46.458Z,7.60
2023-02-20T14:03:20.709Z,8.25
2023-02-20T14:06:04.141Z,7.32
2023-02-20T14:08:31.291Z,7.22
2023-02-20T14:11:23.995Z,7.63
2023-02-20T14:13:53.457Z,7.93
2023-02-20T14:16:35.993Z,7.72
2023-02-20T14:19:14.386Z,8.30
2023-02-20T14:21:41.355Z,8.10
2023-02-20T14:24:18.999Z,7.70
2023-02-20T14:26:47.333Z,11.90
2023-02-20T14:29:29.789Z,11.50
2023-02-20T14:31:58.900Z,9.77
2023-02-20T14:35:08.580Z,8.60
2023-02-20T14:42:32.047Z,8.32
2023-02-20T14:45:06.492Z,8.88
2023-02-20T14:47:35.594Z,8.48
2023-02-20T14:50:35.961Z,9.05
2023-02-20T14:53:18.155Z,8.82
2023-02-20T14:55:45.344Z,8.82
2023-02-20T14:58:20.653Z,10.27
2023-02-20T15:00:53.005Z,9.20
2023-02-20T15:03:30.776Z,8.55
2023-02-20T15:06:03.933Z,9.00
2023-02-20T15:08:36.374Z,9.27
2023-02-20T15:11:12.433Z,8.60
2023-02-20T15:13:43.235Z,9.43
2023-02-20T15:16:40.113Z,9.15
2023-02-20T15:19:22.248Z,8.68
2023-02-20T15:21:58.623Z,9.68
2023-02-20T15:24:25.661Z,9.45
2023-02-20T15:26:53.042Z,8.32
2023-02-20T15:29:26.292Z,9.70
2023-02-20T15:32:05.374Z,8.43
2023-02-20T15:34:35.878Z,9.13
2023-02-20T15:37:33.709Z,7.78
2023-02-20T15:40:22.200Z,9.00
2023-02-20T15:42:50.245Z,8.02
2023-02-20T15:45:17.268Z,8.52
2023-02-20T15:47:44.130Z,10.00
2023-02-20T15:50:11.138Z,9.63
2023-02-20T15:52:38.046Z,9.43
2023-02-20T15:55:05.487Z,9.80
2023-02-20T15:57:32.400Z,10.35
2023-02-20T15:59:59.256Z,10.60
2023-02-20T16:02:26.246Z,9.52
2023-02-20T16:04:53.139Z,10.25
2023-02-20T16:07:21.034Z,9.98
2023-02-20T16:09:48.270Z,10.38
2023-02-20T16:12:26.271Z,11.63
2023-02-20T16:14:54.000Z,10.82
2023-02-20T16:17:25.633Z,11.15
2023-02-20T16:19:53.335Z,11.50
2023-02-20T16:22:20.931Z,10.77
2023-02-20T16:24:47.983Z,10.40
2023-02-20T16:27:33.032Z,10.50
2023-02-20T16:30:00.327Z,10.80
2023-02-20T16:32:29.130Z,11.07
2023-02-20T16:34:59.301Z,11.30
2023-02-20T16:37:26.884Z,11.45
2023-02-20T16:39:53.785Z,11.07
2023-02-20T16:42:22.757Z,11.77
2023-02-20T16:44:50.075Z,11.13
2023-02-20T16:47:22.357Z,11.93
2023-02-20T16:49:49.921Z,12.50
2023-02-20T16:52:30.087Z,11.55
2023-02-20T16:54:58.625Z,12.57
2023-02-20T16:57:26.249Z,11.80
2023-02-20T16:59:58.738Z,10.98
2023-02-20T17:02:31.531Z,11.45
2023-02-20T17:04:59.562Z,11.88
2023-02-20T17:07:26.609Z,11.95
2023-02-20T17:09:53.862Z,11.38
2023-02-20T17:12:23.691Z,11.60
2023-02-20T17:14:53.378Z,11.50
2023-02-20T17:17:20.875Z,10.82
2023-02-20T17:19:47.754Z,11.05
2023-02-20T17:22:14.722Z,11.65
2023-02-20T17:24:43.467Z,10.77
2023-02-20T17:27:12.155Z,11.00
2023-02-20T17:29:41.630Z,11.05
2023-02-20T17:32:08.604Z,10.95
2023-02-20T17:34:35.516Z,11.20
2023-02-20T17:37:02.677Z,10.82
2023-02-20T17:39:29.955Z,10.85
2023-02-20T17:41:57.202Z,10.60
2023-02-20T17:44:29.430Z,11.80
2023-02-20T17:46:58.368Z,12.07
2023-02-20T17:49:27.223Z,12.17
2023-02-20T17:51:59.048Z,11.97
2023-02-20T17:54:27.159Z,11.80
2023-02-20T17:56:54.404Z,12.20
2023-02-20T17:59:23.862Z,11.90
2023-02-20T18:01:51.593Z,12.32
2023-02-20T18:04:21.190Z,12.23
2023-02-20T18:06:48.956Z,11.65
2023-02-20T18:09:18.817Z,11.88
2023-02-20T18:11:46.442Z,12.93
2023-02-20T18:14:14.248Z,14.13
2023-02-20T18:16:41.323Z,15.40
2023-02-20T18:19:13.674Z,14.40
2023-02-20T18:21:42.719Z,14.80
2023-02-20T18:24:10.404Z,13.05
2023-02-20T18:26:37.778Z,14.73
2023-02-20T18:29:04.722Z,13.98
2023-02-20T18:31:31.892Z,16.80
2023-02-20T18:33:58.759Z,14.68
2023-02-20T18:36:28.385Z,15.75
2023-02-20T18:41:22.981Z,15.52
2023-02-20T18:43:53.144Z,14.63
2023-02-20T18:46:32.358Z,14.82
2023-02-20T18:49:00.278Z,14.95
2023-02-20T18:51:33.921Z,16.08
2023-02-20T18:54:01.229Z,15.25
2023-02-20T18:56:28.451Z,15.65
2023-02-20T18:58:55.534Z,15.88
2023-02-20T19:01:23.584Z,16.45
2023-02-20T19:03:54.564Z,15.93
2023-02-20T19:06:28.604Z,15.25
2023-02-20T19:08:55.978Z,15.07
2023-02-20T19:11:23.011Z,14.80
2023-02-20T19:13:49.941Z,16.55
2023-02-20T19:16:17.423Z,16.17
2023-02-20T19:18:50.420Z,15.98
2023-02-20T19:21:19.087Z,16.75
2023-02-20T19:23:46.331Z,16.63
2023-02-20T19:26:14.049Z,16.80
2023-02-20T19:28:44.082Z,16.15
2023-02-20T19:33:39.363Z,17.90
2023-02-20T19:36:09.862Z,17.88
2023-02-20T19:38:39.174Z,16.88
2023-02-20T19:41:06.361Z,15.70
2023-02-20T19:43:33.557Z,16.75
2023-02-20T19:46:00.576Z,16.58
2023-02-20T19:48:28.351Z,15.80
2023-02-20T19:50:56.164Z,15.43
2023-02-20T19:53:23.704Z,15.10
2023-02-20T19:55:54.394Z,15.70
2023-02-20T19:58:21.787Z,15.38
2023-02-20T20:00:48.927Z,15.10
2023-02-20T20:03:16.084Z,14.82
2023-02-20T20:05:42.945Z,16.00
2023-02-20T20:08:10.108Z,15.50
2023-02-20T20:10:37.144Z,15.35
2023-02-20T20:13:06.402Z,14.40
2023-02-20T20:15:34.734Z,14.70
2023-02-20T20:18:02.081Z,15.52
2023-02-20T20:20:30.562Z,13.85
2023-02-20T20:23:01.205Z,14.80
2023-02-20T20:25:28.501Z,13.95
2023-02-20T20:27:57.699Z,14.68
2023-02-20T20:30:27.049Z,14.48
2023-02-20T20:32:54.344Z,15.00
2023-02-20T20:35:22.807Z,14.43
2023-02-20T20:37:49.920Z,14.70
2023-02-20T20:40:16.999Z,13.55
2023-02-20T20:42:44.299Z,14.93
2023-02-20T20:45:13.615Z,14.98
2023-02-20T20:47:42.666Z,15.05
2023-02-20T20:50:11.108Z,15.27
2023-02-20T20:52:38.003Z,15.40
2023-02-20T20:55:05.257Z,14.88
2023-02-20T20:57:37.984Z,14.60
2023-02-20T21:00:10.646Z,14.70
2023-02-20T21:02:37.724Z,15.25
2023-02-20T21:05:10.319Z,15.93
2023-02-20T21:07:39.595Z,16.45
2023-02-20T21:10:07.672Z,15.75
2023-02-20T21:12:34.614Z,16.02
2023-02-20T21:15:01.650Z,14.73
2023-02-20T21:17:28.627Z,16.23
2023-02-20T21:19:55.563Z,16.40
2023-02-20T21:22:23.199Z,14.82
2023-02-20T21:24:50.131Z,17.27
2023-02-20T21:27:17.522Z,18.27
2023-02-20T21:29:44.390Z,18.42
2023-02-20T21:32:11.321Z,16.30
2023-02-20T21:34:38.167Z,16.10
2023-02-20T21:37:06.025Z,15.75
2023-02-20T21:39:32.926Z,17.65
2023-02-20T21:42:18.375Z,17.30
2023-02-20T21:44:47.726Z,15.52
2023-02-20T21:47:16.249Z,15.88
2023-02-20T21:49:45.956Z,15.68
2023-02-20T21:52:13.523Z,13.90
2023-02-20T21:54:42.120Z,14.93
2023-02-20T21:57:09.004Z,14.32
2023-02-20T21:59:35.825Z,16.10
2023-02-20T22:02:02.765Z,15.55
2023-02-20T22:04:30.666Z,13.98
2023-02-20T22:07:16.088Z,15.18
2023-02-20T22:10:01.547Z,14.60
2023-02-20T22:12:46.954Z,14.15
2023-02-20T22:15:33.288Z,14.82
2023-02-20T22:18:18.960Z,15.23
2023-02-20T22:21:04.526Z,16.08
2023-02-20T22:23:50.027Z,17.42
2023-02-20T22:26:36.383Z,18.42
2023-02-20T22:29:22.345Z,18.08
2023-02-20T22:32:07.625Z,19.02
2023-02-20T22:35:05.781Z,18.10
2023-02-20T22:37:56.245Z,19.35
2023-02-20T22:40:41.492Z,18.25
2023-02-20T22:43:26.975Z,18.40
2023-02-20T22:46:12.440Z,16.63
2023-02-20T22:48:57.928Z,15.38
2023-02-20T22:51:43.380Z,17.13
2023-02-20T22:54:28.830Z,17.33
2023-02-20T22:57:15.897Z,16.42
2023-02-20T23:00:02.530Z,18.23
2023-02-20T23:02:48.911Z,16.77
2023-02-20T23:05:34.457Z,17.40
2023-02-20T23:08:20.192Z,16.60
2023-02-20T23:11:05.693Z,17.25
2023-02-20T23:13:51.009Z,17.88
2023-02-20T23:16:39.358Z,16.77
2023-02-20T23:19:25.444Z,18.27
2023-02-20T23:22:12.317Z,17.65
2023-02-20T23:24:57.939Z,17.98
2023-02-20T23:27:43.478Z,17.35
2023-02-20T23:30:29.673Z,17.42
2023-02-20T23:33:15.224Z,17.13
2023-02-20T23:36:00.677Z,17.23
2023-02-20T23:38:45.933Z,16.45
2023-02-20T23:41:31.212Z,16.55
2023-02-20T23:44:16.671Z,16.70
2023-02-20T23:47:06.101Z,15.80
2023-02-20T23:49:51.638Z,17.23
2023-02-20T23:52:37.164Z,19.45
2023-02-20T23:55:23.207Z,21.67
2023-02-20T23:58:08.664Z,22.80
